Time;durP1;ratioP1;P1;durP2;ratioP2;P2;SDS_P1;SDS_P2;PMS_P1;PMS_P2;Temp;Humidity;BMP_temperature;BMP_pressure;BME280_temperature;BME280_humidity;BME280_pressure;Samples;Min_cycle;Max_cycle;Signal;HPM_P1;HPM_P2
2021/12/11 00:00:48;;;;;;;14.00;8.70;;;3.50;99.90;;;;;;5053683;28;20753;-54
2021/12/11 00:03:19;;;;;;;13.67;8.80;;;3.50;99.90;;;;;;5054272;28;20565;-54
2021/12/11 00:05:51;;;;;;;13.70;8.43;;;3.40;99.90;;;;;;5054125;28;20215;-54
2021/12/11 00:08:23;;;;;;;15.47;9.40;;;3.40;99.90;;;;;;5053902;28;20577;-55
2021/12/11 00:10:57;;;;;;;13.60;8.70;;;3.30;99.90;;;;;;5053425;28;20278;-53
2021/12/11 00:13:28;;;;;;;11.40;9.30;;;3.30;99.90;;;;;;5054137;28;20231;-54
2021/12/11 00:15:57;;;;;;;15.27;9.30;;;3.20;99.90;;;;;;5053456;28;20233;-53
2021/12/11 00:18:28;;;;;;;13.63;8.47;;;3.20;99.90;;;;;;5054017;28;20988;-55
2021/12/11 00:20:59;;;;;;;11.73;7.90;;;3.30;99.90;;;;;;5053606;28;20317;-53
2021/12/11 00:23:32;;;;;;;13.07;8.27;;;3.30;99.90;;;;;;5053565;28;20255;-55
2021/12/11 00:26:02;;;;;;;14.60;8.40;;;3.30;99.90;;;;;;5053651;28;20293;-53
2021/12/11 00:28:30;;;;;;;11.60;8.50;;;3.30;99.90;;;;;;5053262;28;20241;-54
2021/12/11 00:30:59;;;;;;;12.20;8.97;;;3.30;99.90;;;;;;5053200;28;20314;-54
2021/12/11 00:33:33;;;;;;;15.90;9.07;;;3.30;99.90;;;;;;5053403;28;20206;-55
2021/12/11 00:36:11;;;;;;;13.00;8.70;;;3.30;99.90;;;;;;5053753;28;20266;-53
2021/12/11 00:38:41;;;;;;;12.73;9.17;;;3.30;99.90;;;;;;5053359;28;20233;-53
2021/12/11 00:41:14;;;;;;;14.60;9.80;;;3.30;99.90;;;;;;5053082;28;20259;-55
2021/12/11 00:43:43;;;;;;;13.20;9.53;;;3.30;99.90;;;;;;5053300;28;20208;-54
2021/12/11 00:46:14;;;;;;;17.27;8.90;;;3.30;99.90;;;;;;5052364;28;20243;-53
2021/12/11 00:48:43;;;;;;;14.07;9.93;;;3.20;99.90;;;;;;5053530;28;20619;-54
2021/12/11 00:51:17;;;;;;;13.13;9.40;;;3.10;99.90;;;;;;5053158;28;20267;-53
2021/12/11 00:53:49;;;;;;;13.53;10.23;;;3.10;99.90;;;;;;5053042;28;20240;-54
2021/12/11 00:56:24;;;;;;;16.43;9.70;;;3.10;99.90;;;;;;5052234;28;20249;-53
2021/12/11 00:58:55;;;;;;;15.50;9.40;;;3.10;99.90;;;;;;5053203;28;20315;-53
2021/12/11 01:01:25;;;;;;;13.10;9.73;;;3.10;99.90;;;;;;5052421;28;20253;-54
2021/12/11 01:03:59;;;;;;;15.90;9.53;;;3.10;99.90;;;;;;5052962;28;20206;-54
2021/12/11 01:06:32;;;;;;;12.70;9.10;;;3.00;99.90;;;;;;5052949;28;20262;-55
2021/12/11 01:09:06;;;;;;;13.47;8.83;;;3.00;99.90;;;;;;5052739;28;20209;-54
2021/12/11 01:11:42;;;;;;;12.87;8.40;;;3.00;99.90;;;;;;5052830;28;20217;-53
2021/12/11 01:14:18;;;;;;;13.40;9.13;;;3.00;99.90;;;;;;5052624;28;20288;-54
2021/12/11 01:16:53;;;;;;;9.83;8.10;;;3.10;99.90;;;;;;5052821;28;20283;-53
2021/12/11 01:19:22;;;;;;;14.23;7.80;;;3.10;99.90;;;;;;5052301;28;20686;-54
2021/12/11 01:21:58;;;;;;;11.10;7.77;;;3.00;99.90;;;;;;5052777;28;20268;-53
2021/12/11 01:24:41;;;;;;;12.37;9.30;;;3.00;99.90;;;;;;5052235;28;20646;-54
2021/12/11 01:27:12;;;;;;;11.80;8.27;;;3.00;99.90;;;;;;5052462;28;20205;-53
2021/12/11 01:29:42;;;;;;;11.50;8.53;;;3.00;99.90;;;;;;5052847;28;20667;-54
2021/12/11 01:32:12;;;;;;;10.77;7.50;;;3.00;99.90;;;;;;5051683;28;20658;-54
2021/12/11 01:34:40;;;;;;;9.50;7.90;;;2.90;99.90;;;;;;5052285;28;20301;-54
2021/12/11 01:37:10;;;;;;;10.40;8.07;;;2.90;99.90;;;;;;5052049;28;20233;-54
2021/12/11 01:39:40;;;;;;;11.10;7.77;;;2.80;99.90;;;;;;5051840;28;20246;-54
2021/12/11 01:42:13;;;;;;;10.13;8.07;;;2.80;99.90;;;;;;5050080;28;20268;-54
2021/12/11 01:44:43;;;;;;;11.23;7.30;;;2.80;99.90;;;;;;5052032;28;20296;-53
2021/12/11 01:47:15;;;;;;;9.77;7.80;;;2.70;99.90;;;;;;5051894;28;20260;-54
2021/12/11 01:49:46;;;;;;;11.20;7.90;;;2.60;99.90;;;;;;5052135;28;20212;-54
2021/12/11 01:52:25;;;;;;;9.37;7.00;;;2.60;99.90;;;;;;5051867;28;20910;-53
2021/12/11 01:54:53;;;;;;;10.47;7.77;;;2.50;99.90;;;;;;5051742;28;20229;-53
2021/12/11 01:57:27;;;;;;;10.60;7.67;;;2.40;99.90;;;;;;5051936;28;20254;-52
2021/12/11 02:00:00;;;;;;;10.27;8.53;;;2.40;99.90;;;;;;5051604;28;20809;-53
2021/12/11 02:02:31;;;;;;;10.93;8.30;;;2.40;99.90;;;;;;5036495;28;20323;-53
2021/12/11 02:05:01;;;;;;;13.83;8.00;;;2.40;99.90;;;;;;5031828;28;20293;-53
2021/12/11 02:07:32;;;;;;;13.90;8.90;;;2.40;99.90;;;;;;5032048;28;20213;-55
2021/12/11 02:10:01;;;;;;;12.17;9.10;;;2.30;99.90;;;;;;5031814;28;20245;-53
2021/12/11 02:12:37;;;;;;;14.37;8.90;;;2.20;99.90;;;;;;5031729;28;20226;-55
2021/12/11 02:15:11;;;;;;;13.03;8.43;;;2.20;99.90;;;;;;5036420;28;20245;-54
2021/12/11 02:17:44;;;;;;;12.13;8.40;;;2.20;99.90;;;;;;5051091;28;20686;-55
2021/12/11 02:20:16;;;;;;;12.60;8.13;;;2.10;99.90;;;;;;5051777;28;20244;-54
2021/12/11 02:22:49;;;;;;;13.57;8.33;;;2.10;99.90;;;;;;5051419;28;20294;-53
2021/12/11 02:25:21;;;;;;;11.87;7.80;;;2.10;99.90;;;;;;5051164;28;20205;-55
2021/12/11 02:27:55;;;;;;;14.50;8.67;;;2.10;99.90;;;;;;5050910;28;20285;-55
2021/12/11 02:30:27;;;;;;;13.60;8.37;;;2.00;99.90;;;;;;5051236;28;20303;-54
2021/12/11 02:33:08;;;;;;;15.60;8.17;;;2.00;99.90;;;;;;5050928;28;20265;-53
2021/12/11 02:35:40;;;;;;;13.17;8.77;;;2.10;99.90;;;;;;5051209;28;20238;-53
2021/12/11 02:38:15;;;;;;;14.20;9.47;;;2.00;99.90;;;;;;5051024;28;20201;-53
2021/12/11 02:40:47;;;;;;;13.80;8.90;;;1.90;99.90;;;;;;5050683;28;20627;-55
2021/12/11 02:43:21;;;;;;;12.07;8.37;;;1.90;99.90;;;;;;5051311;28;20274;-53
2021/12/11 02:45:54;;;;;;;11.87;8.27;;;1.90;99.90;;;;;;5034496;28;20255;-55
2021/12/11 02:48:28;;;;;;;16.80;8.70;;;1.80;99.90;;;;;;5051391;28;20270;-52
2021/12/11 02:51:05;;;;;;;11.47;8.10;;;1.80;99.90;;;;;;5050763;28;20696;-55
2021/12/11 02:53:40;;;;;;;8.60;6.87;;;1.80;99.90;;;;;;5056700;28;20231;-53
2021/12/11 02:56:14;;;;;;;10.57;6.73;;;1.80;99.90;;;;;;5055774;28;20294;-55
2021/12/11 02:58:47;;;;;;;13.30;6.90;;;1.80;99.90;;;;;;5050284;28;20246;-53
2021/12/11 03:01:22;;;;;;;10.27;7.10;;;1.80;99.90;;;;;;5077648;28;20662;-53
2021/12/11 03:04:05;;;;;;;13.63;7.37;;;1.80;99.90;;;;;;5065744;28;20244;-55
2021/12/11 03:06:40;;;;;;;9.83;7.30;;;1.80;99.90;;;;;;5057641;28;20252;-54
2021/12/11 03:09:13;;;;;;;14.77;8.13;;;1.80;99.90;;;;;;5057153;28;20684;-54
2021/12/11 03:11:41;;;;;;;13.23;8.37;;;1.80;99.90;;;;;;5057636;28;20272;-53
2021/12/11 03:14:12;;;;;;;14.10;8.60;;;1.70;99.90;;;;;;5057886;28;20233;-53
2021/12/11 03:16:41;;;;;;;14.00;8.60;;;1.70;99.90;;;;;;5057025;28;20738;-53
2021/12/11 03:19:12;;;;;;;11.63;7.20;;;1.70;99.90;;;;;;5057606;28;20221;-54
2021/12/11 03:21:41;;;;;;;12.43;7.50;;;1.60;99.90;;;;;;5057362;28;20279;-54
2021/12/11 03:24:11;;;;;;;15.40;7.50;;;1.60;99.90;;;;;;5057113;28;20653;-53
2021/12/11 03:26:41;;;;;;;11.27;7.53;;;1.60;99.90;;;;;;5038689;28;20679;-53
2021/12/11 03:29:10;;;;;;;12.77;8.33;;;1.50;99.90;;;;;;5057861;28;20266;-54
2021/12/11 03:31:40;;;;;;;10.33;7.10;;;1.40;99.90;;;;;;5056962;28;20232;-52
2021/12/11 03:34:11;;;;;;;12.17;7.93;;;1.40;99.90;;;;;;5057313;28;20245;-53
2021/12/11 03:36:40;;;;;;;9.70;7.63;;;1.30;99.90;;;;;;5057756;28;20654;-53
2021/12/11 03:39:15;;;;;;;12.10;7.30;;;1.30;99.90;;;;;;5057453;28;20240;-54
2021/12/11 03:41:46;;;;;;;11.73;6.90;;;1.30;99.90;;;;;;5057723;28;20278;-53
2021/12/11 03:44:15;;;;;;;11.07;7.70;;;1.30;99.90;;;;;;5056661;28;20262;-54
2021/12/11 03:46:46;;;;;;;12.60;7.83;;;1.20;99.90;;;;;;5057513;28;20240;-53
2021/12/11 03:49:18;;;;;;;14.63;9.53;;;1.20;99.90;;;;;;5057494;28;20204;-53
2021/12/11 03:51:50;;;;;;;20.10;11.90;;;1.10;99.90;;;;;;5057092;28;20362;-54
2021/12/11 03:54:27;;;;;;;13.63;8.47;;;1.10;99.90;;;;;;5059408;28;20358;-52
2021/12/11 03:56:57;;;;;;;13.43;8.27;;;1.10;99.90;;;;;;5059188;28;20233;-52
2021/12/11 03:59:26;;;;;;;15.40;8.60;;;1.10;99.90;;;;;;5059843;28;20246;-53
2021/12/11 04:01:58;;;;;;;17.67;11.70;;;1.00;99.90;;;;;;5058978;28;20251;-52
2021/12/11 04:04:29;;;;;;;16.13;10.53;;;1.00;99.90;;;;;;5056637;28;20322;-54
2021/12/11 04:06:58;;;;;;;13.40;9.20;;;1.00;99.90;;;;;;5054288;28;20204;-54
2021/12/11 04:09:29;;;;;;;11.20;7.90;;;1.00;99.90;;;;;;5053159;28;20295;-54
2021/12/11 04:11:58;;;;;;;10.83;6.60;;;1.00;99.90;;;;;;5053772;28;20274;-54
2021/12/11 04:14:29;;;;;;;15.17;6.23;;;1.00;99.90;;;;;;5053375;28;20613;-54
2021/12/11 04:16:59;;;;;;;8.93;6.60;;;1.00;99.90;;;;;;5053243;28;20750;-53
2021/12/11 04:19:27;;;;;;;10.20;6.10;;;1.00;99.90;;;;;;5053784;28;20232;-54
2021/12/11 04:21:56;;;;;;;10.57;6.77;;;1.00;99.90;;;;;;5054016;28;20314;-53
2021/12/11 04:24:28;;;;;;;10.63;6.40;;;1.10;99.90;;;;;;5053558;28;20633;-54
2021/12/11 04:26:59;;;;;;;10.17;6.37;;;1.10;99.90;;;;;;5053531;28;20238;-53
2021/12/11 04:29:28;;;;;;;11.60;6.67;;;1.10;99.90;;;;;;5053428;28;20646;-55
2021/12/11 04:31:57;;;;;;;13.17;7.17;;;1.00;99.90;;;;;;5053111;28;20313;-54
2021/12/11 04:34:25;;;;;;;10.17;6.73;;;1.00;99.90;;;;;;5052698;28;20213;-54
2021/12/11 04:37:00;;;;;;;11.77;7.60;;;0.90;99.90;;;;;;5053140;28;20233;-55
2021/12/11 04:39:34;;;;;;;12.83;6.97;;;0.90;99.90;;;;;;5053389;28;20254;-54
2021/12/11 04:42:15;;;;;;;13.20;7.00;;;0.80;99.90;;;;;;5052779;28;20271;-54
2021/12/11 04:44:46;;;;;;;11.83;8.53;;;0.80;99.90;;;;;;5053376;28;20310;-54
2021/12/11 04:47:28;;;;;;;11.33;8.20;;;0.80;99.90;;;;;;5053240;28;20639;-54
2021/12/11 04:50:02;;;;;;;14.37;8.10;;;0.80;99.90;;;;;;5052862;28;20193;-53
2021/12/11 04:52:34;;;;;;;13.70;8.73;;;0.70;99.90;;;;;;5053340;28;20255;-53
2021/12/11 04:55:20;;;;;;;15.37;10.17;;;0.70;99.90;;;;;;5052957;28;20244;-55
2021/12/11 04:58:04;;;;;;;13.50;9.73;;;0.60;99.90;;;;;;5053481;28;20327;-52
2021/12/11 05:00:48;;;;;;;15.17;10.00;;;0.60;99.90;;;;;;5052503;28;20650;-53
2021/12/11 05:06:24;;;;;;;14.30;8.57;;;0.50;99.90;;;;;;5052689;28;20593;-54
2021/12/11 05:09:19;;;;;;;12.40;8.13;;;0.50;99.90;;;;;;5052739;28;20241;-54
2021/12/11 05:11:54;;;;;;;16.37;8.60;;;0.40;99.90;;;;;;5052379;28;20351;-53
2021/12/11 05:14:26;;;;;;;12.37;7.97;;;0.40;99.90;;;;;;5052724;28;20242;-53
2021/12/11 05:16:54;;;;;;;8.57;6.70;;;0.40;99.90;;;;;;5050958;28;20222;-54
2021/12/11 05:19:22;;;;;;;13.27;7.63;;;0.40;99.90;;;;;;5052720;28;20265;-52
2021/12/11 05:21:50;;;;;;;18.87;9.70;;;0.40;99.90;;;;;;5052624;28;20270;-53
2021/12/11 05:24:20;;;;;;;24.03;12.53;;;0.30;99.90;;;;;;5051730;28;20319;-52
2021/12/11 05:26:48;;;;;;;14.43;9.77;;;0.30;99.90;;;;;;5052749;28;20235;-53
2021/12/11 05:29:16;;;;;;;19.90;10.37;;;0.30;99.90;;;;;;5052285;28;20632;-53
2021/12/11 05:31:46;;;;;;;19.33;10.87;;;0.30;99.90;;;;;;5052024;28;20341;-53
2021/12/11 05:34:14;;;;;;;16.20;9.97;;;0.30;99.90;;;;;;5052259;28;20293;-52
2021/12/11 05:36:43;;;;;;;11.87;7.60;;;0.20;99.90;;;;;;5052422;28;20697;-54
2021/12/11 05:39:14;;;;;;;8.90;6.53;;;0.20;99.90;;;;;;5040995;28;20293;-54
2021/12/11 05:41:44;;;;;;;9.23;6.77;;;0.20;99.90;;;;;;5038695;28;20258;-54
2021/12/11 05:44:15;;;;;;;8.27;6.47;;;0.10;99.90;;;;;;5037738;28;20366;-53
2021/12/11 05:46:45;;;;;;;8.47;6.43;;;0.10;99.90;;;;;;5031443;28;20236;-52
2021/12/11 05:49:14;;;;;;;9.27;6.77;;;0.10;99.90;;;;;;5034298;28;20671;-53
2021/12/11 05:51:47;;;;;;;13.97;7.60;;;0.00;99.90;;;;;;5033989;28;20309;-54
2021/12/11 05:54:18;;;;;;;13.97;7.47;;;0.00;99.90;;;;;;5034873;28;20278;-53
2021/12/11 05:56:46;;;;;;;12.87;7.30;;;0.00;99.90;;;;;;5033813;28;20576;-53
2021/12/11 05:59:17;;;;;;;10.30;6.97;;;0.00;99.90;;;;;;5040202;28;20295;-54
2021/12/11 06:01:50;;;;;;;11.43;7.17;;;0.00;99.90;;;;;;5050573;28;20219;-54
2021/12/11 06:04:23;;;;;;;13.33;7.43;;;0.00;99.90;;;;;;5043251;28;20269;-54
2021/12/11 06:06:52;;;;;;;14.83;8.37;;;-0.10;99.90;;;;;;5044864;28;20238;-53
2021/12/11 06:09:23;;;;;;;13.57;8.47;;;-0.10;99.90;;;;;;5036477;28;20226;-54
2021/12/11 06:11:54;;;;;;;12.97;7.83;;;-0.10;99.90;;;;;;5048754;28;20258;-54
2021/12/11 06:14:22;;;;;;;12.53;7.23;;;-0.10;99.90;;;;;;5034109;28;20233;-54
2021/12/11 06:16:54;;;;;;;14.07;7.73;;;-0.20;99.90;;;;;;5045146;28;20701;-55
2021/12/11 06:19:25;;;;;;;15.93;7.77;;;-0.20;99.90;;;;;;5044766;28;20353;-54
2021/12/11 06:21:55;;;;;;;12.23;7.67;;;-0.20;99.90;;;;;;5046359;28;20612;-54
2021/12/11 06:24:24;;;;;;;10.70;7.60;;;-0.20;99.90;;;;;;5035953;28;20273;-54
2021/12/11 06:26:54;;;;;;;13.73;8.40;;;-0.30;99.90;;;;;;5050873;28;20206;-54
2021/12/11 06:29:22;;;;;;;13.60;8.07;;;-0.30;99.90;;;;;;5050870;28;20215;-54
2021/12/11 06:31:53;;;;;;;15.57;9.00;;;-0.30;99.90;;;;;;5037530;28;20827;-53
2021/12/11 06:34:21;;;;;;;13.73;7.07;;;-0.30;99.90;;;;;;5031079;28;20258;-54
2021/12/11 06:36:49;;;;;;;16.40;10.07;;;-0.30;99.90;;;;;;5030142;28;20257;-55
2021/12/11 06:39:20;;;;;;;15.90;10.40;;;-0.30;99.90;;;;;;5051208;28;20639;-53
2021/12/11 06:41:51;;;;;;;13.07;9.20;;;-0.30;99.90;;;;;;5051062;28;20262;-54
2021/12/11 06:44:20;;;;;;;18.23;9.97;;;-0.30;99.90;;;;;;5051009;28;20691;-53
2021/12/11 06:46:53;;;;;;;14.37;9.40;;;-0.30;99.90;;;;;;5040535;28;20667;-54
2021/12/11 06:49:23;;;;;;;13.40;8.37;;;-0.30;99.90;;;;;;5030875;28;20275;-55
2021/12/11 06:51:52;;;;;;;12.40;7.27;;;-0.40;99.90;;;;;;5031557;28;20229;-54
2021/12/11 06:54:21;;;;;;;14.37;7.50;;;-0.40;99.90;;;;;;5041322;28;20713;-54
2021/12/11 06:56:50;;;;;;;14.67;7.67;;;-0.40;99.90;;;;;;5047948;28;20265;-54
2021/12/11 06:59:18;;;;;;;12.70;7.40;;;-0.40;99.90;;;;;;5039805;28;20234;-55
2021/12/11 07:01:46;;;;;;;12.60;7.83;;;-0.50;99.90;;;;;;5049664;28;20694;-54
2021/12/11 07:04:15;;;;;;;12.53;8.43;;;-0.50;99.90;;;;;;5050179;28;20238;-54
2021/12/11 07:06:48;;;;;;;13.30;8.10;;;-0.50;99.90;;;;;;5050168;28;20229;-54
2021/12/11 07:09:18;;;;;;;13.23;7.83;;;-0.50;99.90;;;;;;5047915;28;20252;-55
2021/12/11 07:11:47;;;;;;;11.23;7.37;;;-0.50;99.90;;;;;;5049619;28;20228;-54
2021/12/11 07:14:17;;;;;;;11.20;7.40;;;-0.50;99.90;;;;;;5050423;28;20198;-53
2021/12/11 07:16:46;;;;;;;10.07;7.77;;;-0.50;99.90;;;;;;5049937;28;20293;-53
2021/12/11 07:19:15;;;;;;;9.90;7.07;;;-0.50;99.90;;;;;;5049569;28;20222;-54
2021/12/11 07:21:46;;;;;;;12.07;7.30;;;-0.50;99.90;;;;;;5030114;28;20254;-53
2021/12/11 07:24:16;;;;;;;14.23;7.60;;;-0.50;99.90;;;;;;5032422;28;20260;-55
2021/12/11 07:26:44;;;;;;;11.90;7.17;;;-0.60;99.90;;;;;;5040207;28;20238;-53
2021/12/11 07:29:16;;;;;;;13.43;8.37;;;-0.50;99.90;;;;;;5049139;28;20692;-55
2021/12/11 07:31:47;;;;;;;12.60;7.63;;;-0.50;99.90;;;;;;5050469;28;20266;-55
2021/12/11 07:34:16;;;;;;;12.03;6.83;;;-0.50;99.90;;;;;;5050541;28;20237;-52
2021/12/11 07:36:46;;;;;;;13.77;7.67;;;-0.50;99.90;;;;;;5050107;28;20630;-54
2021/12/11 07:39:18;;;;;;;11.17;7.13;;;-0.50;99.90;;;;;;5051622;28;20249;-53
2021/12/11 07:41:48;;;;;;;9.93;6.77;;;-0.50;99.90;;;;;;5053977;28;20762;-53
2021/12/11 07:44:16;;;;;;;11.73;7.53;;;-0.50;99.90;;;;;;5053865;28;20718;-53
2021/12/11 07:46:44;;;;;;;9.53;6.87;;;-0.50;99.90;;;;;;5054401;28;20639;-54
2021/12/11 07:49:13;;;;;;;15.83;7.63;;;-0.50;99.90;;;;;;5054152;28;20207;-54
2021/12/11 07:51:42;;;;;;;12.70;8.03;;;-0.50;99.90;;;;;;5054496;28;20296;-53
2021/12/11 07:54:12;;;;;;;13.03;8.03;;;-0.50;99.90;;;;;;5054324;28;20241;-55
2021/12/11 07:56:40;;;;;;;12.53;7.77;;;-0.40;99.90;;;;;;5053776;28;20293;-53
2021/12/11 07:59:10;;;;;;;13.07;7.83;;;-0.40;99.90;;;;;;5054056;28;20753;-54
2021/12/11 08:01:42;;;;;;;9.57;7.60;;;-0.40;99.90;;;;;;5053386;28;20292;-53
2021/12/11 08:04:11;;;;;;;11.80;7.47;;;-0.40;99.90;;;;;;5054414;28;20292;-54
2021/12/11 08:06:40;;;;;;;11.73;7.70;;;-0.40;99.90;;;;;;5053722;28;20257;-54
2021/12/11 08:09:13;;;;;;;9.70;6.73;;;-0.40;99.90;;;;;;5054206;28;20635;-54
2021/12/11 08:11:42;;;;;;;10.97;6.70;;;-0.40;99.90;;;;;;5053911;28;20659;-55
2021/12/11 08:14:11;;;;;;;14.83;7.30;;;-0.40;99.90;;;;;;5053724;28;20242;-54
2021/12/11 08:16:46;;;;;;;14.60;7.23;;;-0.40;99.90;;;;;;5051354;28;20249;-54
2021/12/11 08:19:17;;;;;;;9.03;6.83;;;-0.30;99.90;;;;;;5053999;28;20284;-54
2021/12/11 08:21:46;;;;;;;12.00;6.20;;;-0.30;99.90;;;;;;5053559;28;20738;-54
2021/12/11 08:24:16;;;;;;;14.27;7.30;;;-0.30;99.90;;;;;;5038421;28;20246;-54
2021/12/11 08:26:45;;;;;;;11.77;7.03;;;-0.30;99.90;;;;;;5043052;28;20259;-54
2021/12/11 08:29:16;;;;;;;10.67;6.93;;;-0.20;99.90;;;;;;5053544;28;20355;-54
2021/12/11 08:31:48;;;;;;;12.47;6.63;;;-0.20;99.90;;;;;;5053157;28;20260;-54
2021/12/11 08:34:18;;;;;;;10.23;6.37;;;-0.10;99.90;;;;;;5040255;28;20207;-55
2021/12/11 08:36:46;;;;;;;11.43;7.10;;;-0.10;99.90;;;;;;5040058;28;20307;-54
2021/12/11 08:39:17;;;;;;;13.20;7.03;;;0.00;99.90;;;;;;5050966;28;20207;-53
2021/12/11 08:41:49;;;;;;;10.97;6.67;;;0.00;99.90;;;;;;5052653;28;20235;-54
2021/12/11 08:44:18;;;;;;;15.40;10.07;;;0.00;99.90;;;;;;5052642;28;20241;-55
2021/12/11 08:46:49;;;;;;;9.93;7.37;;;0.10;99.90;;;;;;5062004;28;20236;-55
2021/12/11 08:49:21;;;;;;;12.70;7.03;;;0.10;99.90;;;;;;5067209;28;20214;-54
2021/12/11 08:51:54;;;;;;;14.63;10.23;;;0.10;99.90;;;;;;5054187;28;20262;-55
2021/12/11 08:54:25;;;;;;;21.43;9.80;;;0.10;99.90;;;;;;5052154;28;20241;-54
2021/12/11 08:56:55;;;;;;;19.20;9.47;;;0.20;99.90;;;;;;5053270;28;20293;-55
2021/12/11 08:59:30;;;;;;;9.77;7.53;;;0.20;99.90;;;;;;5052390;28;20234;-54
2021/12/11 09:02:02;;;;;;;10.87;6.77;;;0.30;99.90;;;;;;5053030;28;20316;-53
2021/12/11 09:04:35;;;;;;;12.80;8.17;;;0.30;99.90;;;;;;5053018;28;20261;-53
2021/12/11 09:07:08;;;;;;;10.97;8.17;;;0.30;99.90;;;;;;5052562;28;20259;-54
2021/12/11 09:09:42;;;;;;;9.53;7.27;;;0.30;99.90;;;;;;5045436;28;20212;-55
2021/12/11 09:12:14;;;;;;;15.43;8.63;;;0.40;99.90;;;;;;5047177;28;20725;-54
2021/12/11 09:14:48;;;;;;;10.40;7.80;;;0.40;99.90;;;;;;5052420;28;20288;-54
2021/12/11 09:17:21;;;;;;;10.53;7.63;;;0.50;99.90;;;;;;5051952;28;20248;-54
2021/12/11 09:19:54;;;;;;;12.80;9.60;;;0.50;99.90;;;;;;5051771;28;20293;-54
2021/12/11 09:22:29;;;;;;;13.30;9.07;;;0.50;99.90;;;;;;5051830;28;20254;-54
2021/12/11 09:25:06;;;;;;;13.50;8.00;;;0.60;99.90;;;;;;5052182;28;20234;-55
2021/12/11 09:27:40;;;;;;;10.17;7.67;;;0.60;99.90;;;;;;5052663;28;20371;-54
2021/12/11 09:30:13;;;;;;;13.37;8.67;;;0.70;99.90;;;;;;5050262;28;20243;-54
2021/12/11 09:32:46;;;;;;;13.52;8.80;;;0.80;99.90;;;;;;5047574;28;20443;-54
2021/12/11 09:35:22;;;;;;;12.73;7.53;;;0.90;99.90;;;;;;5052194;28;20234;-55
2021/12/11 09:37:53;;;;;;;46.47;42.10;;;0.90;99.90;;;;;;5051819;28;20302;-55
2021/12/11 09:40:46;;;;;;;15.27;11.30;;;0.90;99.90;;;;;;5051377;28;20578;-55
2021/12/11 09:43:30;;;;;;;12.30;8.60;;;0.90;99.90;;;;;;5049148;28;20256;-53
2021/12/11 09:45:59;;;;;;;12.30;8.90;;;0.90;99.90;;;;;;5048987;28;21052;-55
2021/12/11 09:48:28;;;;;;;16.07;9.13;;;1.00;99.90;;;;;;5047561;28;20223;-54
2021/12/11 09:51:04;;;;;;;12.23;9.07;;;1.00;99.90;;;;;;5047455;28;20242;-54
2021/12/11 09:53:35;;;;;;;17.20;9.83;;;1.10;99.90;;;;;;5045295;28;20214;-55
2021/12/11 09:56:08;;;;;;;13.63;9.70;;;1.10;99.90;;;;;;5047247;28;20242;-55
2021/12/11 09:58:39;;;;;;;16.75;10.90;;;1.10;99.90;;;;;;5040295;28;20433;-54
2021/12/11 10:01:11;;;;;;;14.87;11.00;;;1.30;99.90;;;;;;5045484;28;20805;-55
2021/12/11 10:03:45;;;;;;;17.23;11.57;;;1.30;99.90;;;;;;5039618;28;20297;-55
2021/12/11 10:06:37;;;;;;;20.47;13.90;;;1.30;99.90;;;;;;5043436;28;20283;-54
2021/12/11 10:09:18;;;;;;;17.30;10.87;;;1.30;99.90;;;;;;5038891;28;20622;-53
2021/12/11 10:11:54;;;;;;;19.30;11.80;;;1.40;99.90;;;;;;5043185;28;20303;-55
2021/12/11 10:14:28;;;;;;;15.20;10.87;;;1.40;99.90;;;;;;5048600;28;20229;-54
2021/12/11 10:16:59;;;;;;;16.73;11.60;;;1.40;99.90;;;;;;5049240;28;20212;-55
2021/12/11 10:19:29;;;;;;;15.43;11.17;;;1.50;99.90;;;;;;5048761;28;20295;-55
2021/12/11 10:22:04;;;;;;;15.83;11.50;;;1.50;99.90;;;;;;5048966;28;20300;-55
2021/12/11 10:24:34;;;;;;;16.85;13.48;;;1.60;99.90;;;;;;5045164;28;20468;-55
2021/12/11 10:27:05;;;;;;;17.27;12.20;;;1.80;99.90;;;;;;5048403;28;20332;-54
2021/12/11 10:29:36;;;;;;;15.63;11.63;;;1.70;99.90;;;;;;5047910;28;20219;-56
2021/12/11 10:32:09;;;;;;;17.57;11.13;;;1.70;99.90;;;;;;5047407;28;20258;-55
2021/12/11 10:34:38;;;;;;;20.20;12.20;;;1.70;99.90;;;;;;5046948;28;20295;-55
2021/12/11 10:37:08;;;;;;;16.43;11.60;;;1.80;99.90;;;;;;5047215;28;20244;-56
2021/12/11 10:39:40;;;;;;;16.97;12.33;;;1.80;99.90;;;;;;5046699;28;20300;-55
2021/12/11 10:42:09;;;;;;;17.27;12.13;;;1.90;99.90;;;;;;5047567;28;20278;-56
2021/12/11 10:44:42;;;;;;;17.40;13.38;;;1.90;99.90;;;;;;5043108;28;20877;-55
2021/12/11 10:47:13;;;;;;;17.03;12.77;;;2.10;99.90;;;;;;5044805;28;20671;-54
2021/12/11 10:49:51;;;;;;;14.43;11.63;;;2.00;99.90;;;;;;5044718;28;20225;-55
2021/12/11 10:52:23;;;;;;;17.73;12.27;;;2.00;99.90;;;;;;5046901;28;20257;-53
2021/12/11 10:54:53;;;;;;;18.30;13.25;;;2.00;99.90;;;;;;5045893;28;20482;-55
2021/12/11 10:57:24;;;;;;;16.03;11.70;;;2.20;99.90;;;;;;5050703;28;20210;-54
2021/12/11 10:59:56;;;;;;;15.10;12.13;;;2.20;99.90;;;;;;5049850;28;20301;-54
2021/12/11 11:02:26;;;;;;;19.57;12.40;;;2.20;99.90;;;;;;5050486;28;20257;-54
2021/12/11 11:04:57;;;;;;;19.77;12.43;;;2.20;99.90;;;;;;5050963;28;20224;-53
2021/12/11 11:07:27;;;;;;;18.60;13.13;;;2.20;99.90;;;;;;5050944;28;20259;-54
2021/12/11 11:09:57;;;;;;;19.33;12.80;;;2.20;99.90;;;;;;5050504;28;20251;-54
2021/12/11 11:12:27;;;;;;;18.43;13.43;;;2.30;99.90;;;;;;5050645;28;20264;-53
2021/12/11 11:14:57;;;;;;;20.57;13.90;;;2.40;99.90;;;;;;5054258;28;20760;-54
2021/12/11 11:17:28;;;;;;;21.17;14.10;;;2.50;99.90;;;;;;5052909;28;20236;-54
2021/12/11 11:19:58;;;;;;;21.10;14.43;;;2.60;99.90;;;;;;5053497;28;20249;-54
2021/12/11 11:22:34;;;;;;;22.77;15.07;;;2.70;99.90;;;;;;5048047;28;20253;-54
2021/12/11 11:25:08;;;;;;;21.63;15.90;;;2.90;99.90;;;;;;5054603;28;20247;-54
2021/12/11 11:27:37;;;;;;;24.23;15.60;;;3.00;99.90;;;;;;5048022;28;20306;-54
2021/12/11 11:30:09;;;;;;;19.97;14.97;;;3.00;99.90;;;;;;5054295;28;20209;-54
2021/12/11 11:32:37;;;;;;;25.53;16.70;;;3.00;99.90;;;;;;5053780;28;20264;-54
2021/12/11 11:35:10;;;;;;;24.73;15.63;;;3.00;99.90;;;;;;5044858;28;20225;-54
2021/12/11 11:37:48;;;;;;;23.73;15.83;;;3.00;99.90;;;;;;5049506;28;20638;-55
2021/12/11 11:40:20;;;;;;;25.70;16.47;;;3.00;99.90;;;;;;5047945;28;20292;-55
2021/12/11 11:42:48;;;;;;;23.37;16.97;;;3.00;99.90;;;;;;5047598;28;20257;-52
2021/12/11 11:45:19;;;;;;;31.90;20.00;;;3.20;99.90;;;;;;5043393;28;20721;-54
2021/12/11 11:47:47;;;;;;;32.53;21.50;;;3.20;99.90;;;;;;5042301;28;20252;-54
2021/12/11 11:50:19;;;;;;;42.37;25.63;;;3.20;99.90;;;;;;5047578;28;20246;-54
2021/12/11 11:52:47;;;;;;;34.80;23.37;;;3.20;99.90;;;;;;5045247;28;20252;-54
2021/12/11 11:55:20;;;;;;;42.90;26.70;;;3.20;99.90;;;;;;5046703;28;20294;-54
2021/12/11 11:57:51;;;;;;;55.03;35.83;;;3.10;99.90;;;;;;5047501;28;20229;-54
2021/12/11 12:00:25;;;;;;;39.73;25.70;;;3.10;99.90;;;;;;5047383;28;20233;-55
2021/12/11 12:02:55;;;;;;;40.87;28.23;;;3.10;99.90;;;;;;5048486;28;20773;-54
2021/12/11 12:05:25;;;;;;;36.10;23.10;;;3.20;99.90;;;;;;5054307;28;20232;-54
2021/12/11 12:07:53;;;;;;;32.47;22.37;;;3.20;99.90;;;;;;5054144;28;20271;-55
2021/12/11 12:10:27;;;;;;;33.30;20.70;;;3.30;99.90;;;;;;5054169;28;20330;-54
2021/12/11 12:12:56;;;;;;;30.30;20.30;;;3.30;99.90;;;;;;5050550;28;20267;-54
2021/12/11 12:15:35;;;;;;;30.97;19.27;;;3.40;99.90;;;;;;5053815;28;20206;-55
2021/12/11 12:18:03;;;;;;;24.40;17.07;;;3.40;99.90;;;;;;5048025;28;20235;-54
2021/12/11 12:20:32;;;;;;;38.53;25.90;;;3.40;99.90;;;;;;5050592;28;20210;-55
2021/12/11 12:23:01;;;;;;;29.50;20.33;;;3.40;99.90;;;;;;5050268;28;20243;-55
2021/12/11 12:25:31;;;;;;;28.53;18.10;;;3.50;99.90;;;;;;5052456;28;20240;-54
2021/12/11 12:27:59;;;;;;;28.87;19.10;;;3.50;99.90;;;;;;5051936;28;20236;-54
2021/12/11 12:30:32;;;;;;;25.40;17.93;;;3.50;99.90;;;;;;5053224;28;20234;-54
2021/12/11 12:33:01;;;;;;;27.13;16.70;;;3.50;99.90;;;;;;5052957;28;20253;-53
2021/12/11 12:35:30;;;;;;;33.67;21.13;;;3.40;99.90;;;;;;5053140;28;20213;-53
2021/12/11 12:38:00;;;;;;;45.73;30.50;;;3.40;99.90;;;;;;5052024;28;20267;-55
2021/12/11 12:40:32;;;;;;;34.53;20.50;;;3.40;99.90;;;;;;5053219;28;20301;-54
2021/12/11 12:43:10;;;;;;;27.80;16.90;;;3.40;99.90;;;;;;5048261;28;20241;-54
2021/12/11 12:45:42;;;;;;;29.30;17.13;;;3.30;99.90;;;;;;5052274;28;20218;-58
2021/12/11 12:48:22;;;;;;;27.50;19.13;;;3.20;99.90;;;;;;5048606;28;20258;-55
2021/12/11 12:50:55;;;;;;;32.87;19.43;;;3.20;99.90;;;;;;5050323;28;20292;-54
2021/12/11 12:53:24;;;;;;;26.10;17.03;;;3.10;99.90;;;;;;5054850;28;20241;-54
2021/12/11 12:55:56;;;;;;;27.23;17.07;;;3.10;99.90;;;;;;5056161;28;20232;-53
2021/12/11 12:58:29;;;;;;;24.00;16.90;;;3.10;99.90;;;;;;5055358;28;20201;-54
2021/12/11 13:01:02;;;;;;;25.80;16.63;;;3.10;99.90;;;;;;5055324;28;20321;-54
2021/12/11 13:03:34;;;;;;;30.93;18.87;;;3.20;99.90;;;;;;5054931;28;20212;-55
2021/12/11 13:06:06;;;;;;;27.73;16.60;;;3.10;99.90;;;;;;5054943;28;20241;-53
2021/12/11 13:08:37;;;;;;;32.53;16.87;;;3.10;99.90;;;;;;5050122;28;20317;-54